sensor_id;sensor_type;location;lat;lon;timestamp;P1;durP1;ratioP1;P2;durP2;ratioP2
20904;SDS011;10612;50.692;7.188;2024-01-27T00:17:06;0.20;;;0.20;;
20904;SDS011;10612;50.692;7.188;2024-01-27T00:27:07;0.20;;;0.20;;
20904;SDS011;10612;50.692;7.188;2024-01-27T00:37:09;0.20;;;0.20;;
20904;SDS011;10612;50.692;7.188;2024-01-27T00:47:10;0.20;;;0.20;;
20904;SDS011;10612;50.692;7.188;2024-01-27T00:57:12;0.20;;;0.20;;
20904;SDS011;10612;50.692;7.188;2024-01-27T01:07:13;0.20;;;0.20;;
20904;SDS011;10612;50.692;7.188;2024-01-27T01:17:14;0.28;;;0.28;;
20904;SDS011;10612;50.692;7.188;2024-01-27T01:27:16;0.20;;;0.20;;
20904;SDS011;10612;50.692;7.188;2024-01-27T01:37:20;0.20;;;0.20;;
20904;SDS011;10612;50.692;7.188;2024-01-27T01:47:22;0.20;;;0.20;;
20904;SDS011;10612;50.692;7.188;2024-01-27T01:57:23;0.20;;;0.20;;
20904;SDS011;10612;50.692;7.188;2024-01-27T02:07:25;0.20;;;0.20;;
20904;SDS011;10612;50.692;7.188;2024-01-27T02:17:27;0.20;;;0.20;;
20904;SDS011;10612;50.692;7.188;2024-01-27T02:27:28;0.20;;;0.20;;
20904;SDS011;10612;50.692;7.188;2024-01-27T02:37:30;0.30;;;0.30;;
20904;SDS011;10612;50.692;7.188;2024-01-27T02:47:32;0.20;;;0.20;;
20904;SDS011;10612;50.692;7.188;2024-01-27T02:57:33;0.20;;;0.20;;
20904;SDS011;10612;50.692;7.188;2024-01-27T03:07:34;0.30;;;0.30;;
20904;SDS011;10612;50.692;7.188;2024-01-27T03:17:36;0.30;;;0.30;;
20904;SDS011;10612;50.692;7.188;2024-01-27T03:27:38;0.20;;;0.20;;
20904;SDS011;10612;50.692;7.188;2024-01-27T03:37:40;0.30;;;0.30;;
20904;SDS011;10612;50.692;7.188;2024-01-27T03:47:41;0.30;;;0.30;;
20904;SDS011;10612;50.692;7.188;2024-01-27T03:57:43;0.30;;;0.30;;
20904;SDS011;10612;50.692;7.188;2024-01-27T04:07:44;0.30;;;0.30;;
20904;SDS011;10612;50.692;7.188;2024-01-27T04:17:47;0.30;;;0.30;;
20904;SDS011;10612;50.692;7.188;2024-01-27T04:27:49;0.30;;;0.30;;
20904;SDS011;10612;50.692;7.188;2024-01-27T04:37:50;0.30;;;0.30;;
20904;SDS011;10612;50.692;7.188;2024-01-27T04:47:53;0.20;;;0.20;;
20904;SDS011;10612;50.692;7.188;2024-01-27T04:57:55;0.22;;;0.22;;
20904;SDS011;10612;50.692;7.188;2024-01-27T05:07:56;0.20;;;0.20;;
20904;SDS011;10612;50.692;7.188;2024-01-27T05:17:58;0.30;;;0.30;;
20904;SDS011;10612;50.692;7.188;2024-01-27T05:28:00;0.30;;;0.30;;
20904;SDS011;10612;50.692;7.188;2024-01-27T05:38:02;0.30;;;0.30;;
20904;SDS011;10612;50.692;7.188;2024-01-27T05:48:04;0.20;;;0.20;;
20904;SDS011;10612;50.692;7.188;2024-01-27T05:58:05;0.30;;;0.30;;
20904;SDS011;10612;50.692;7.188;2024-01-27T06:08:07;0.30;;;0.30;;
20904;SDS011;10612;50.692;7.188;2024-01-27T06:18:09;0.30;;;0.30;;
20904;SDS011;10612;50.692;7.188;2024-01-27T06:38:13;0.30;;;0.30;;
20904;SDS011;10612;50.692;7.188;2024-01-27T06:48:15;0.30;;;0.30;;
20904;SDS011;10612;50.692;7.188;2024-01-27T06:58:17;0.30;;;0.30;;
20904;SDS011;10612;50.692;7.188;2024-01-27T07:08:18;0.30;;;0.30;;
20904;SDS011;10612;50.692;7.188;2024-01-27T07:18:20;0.30;;;0.30;;
20904;SDS011;10612;50.692;7.188;2024-01-27T07:28:22;0.20;;;0.20;;
20904;SDS011;10612;50.692;7.188;2024-01-27T07:38:23;0.30;;;0.30;;
20904;SDS011;10612;50.692;7.188;2024-01-27T07:48:24;0.30;;;0.30;;
20904;SDS011;10612;50.692;7.188;2024-01-27T07:58:26;0.30;;;0.30;;
20904;SDS011;10612;50.692;7.188;2024-01-27T08:08:28;0.30;;;0.30;;
20904;SDS011;10612;50.692;7.188;2024-01-27T08:18:30;0.30;;;0.30;;
20904;SDS011;10612;50.692;7.188;2024-01-27T08:28:31;0.30;;;0.30;;
20904;SDS011;10612;50.692;7.188;2024-01-27T08:38:33;0.22;;;0.22;;
20904;SDS011;10612;50.692;7.188;2024-01-27T08:48:34;0.20;;;0.20;;
20904;SDS011;10612;50.692;7.188;2024-01-27T08:58:37;0.30;;;0.30;;
20904;SDS011;10612;50.692;7.188;2024-01-27T09:08:38;0.30;;;0.30;;
20904;SDS011;10612;50.692;7.188;2024-01-27T09:18:39;0.30;;;0.30;;
20904;SDS011;10612;50.692;7.188;2024-01-27T09:28:41;0.30;;;0.30;;
20904;SDS011;10612;50.692;7.188;2024-01-27T09:38:48;0.30;;;0.30;;
20904;SDS011;10612;50.692;7.188;2024-01-27T09:48:50;0.30;;;0.30;;
20904;SDS011;10612;50.692;7.188;2024-01-27T09:58:53;0.35;;;0.35;;
20904;SDS011;10612;50.692;7.188;2024-01-27T10:08:56;0.20;;;0.20;;
20904;SDS011;10612;50.692;7.188;2024-01-27T10:19:02;0.20;;;0.20;;
20904;SDS011;10612;50.692;7.188;2024-01-27T10:29:04;0.20;;;0.20;;
20904;SDS011;10612;50.692;7.188;2024-01-27T10:39:16;0.20;;;0.20;;
20904;SDS011;10612;50.692;7.188;2024-01-27T10:49:18;0.20;;;0.20;;
20904;SDS011;10612;50.692;7.188;2024-01-27T10:59:20;0.10;;;0.10;;
20904;SDS011;10612;50.692;7.188;2024-01-27T11:09:22;0.10;;;0.10;;
20904;SDS011;10612;50.692;7.188;2024-01-27T11:19:23;0.10;;;0.10;;
20904;SDS011;10612;50.692;7.188;2024-01-27T11:29:25;0.10;;;0.10;;
20904;SDS011;10612;50.692;7.188;2024-01-27T11:39:28;0.10;;;0.10;;
20904;SDS011;10612;50.692;7.188;2024-01-27T11:49:30;0.10;;;0.10;;
20904;SDS011;10612;50.692;7.188;2024-01-27T11:59:33;0.10;;;0.10;;
20904;SDS011;10612;50.692;7.188;2024-01-27T12:09:37;0.10;;;0.10;;
20904;SDS011;10612;50.692;7.188;2024-01-27T12:19:45;0.10;;;0.10;;
20904;SDS011;10612;50.692;7.188;2024-01-27T12:29:47;0.10;;;0.10;;
20904;SDS011;10612;50.692;7.188;2024-01-27T12:39:50;0.10;;;0.10;;
20904;SDS011;10612;50.692;7.188;2024-01-27T12:59:53;0.10;;;0.10;;
20904;SDS011;10612;50.692;7.188;2024-01-27T13:09:55;0.10;;;0.10;;
20904;SDS011;10612;50.692;7.188;2024-01-27T13:19:56;0.10;;;0.10;;
20904;SDS011;10612;50.692;7.188;2024-01-27T13:29:58;0.13;;;0.13;;
20904;SDS011;10612;50.692;7.188;2024-01-27T13:39:59;0.10;;;0.10;;
20904;SDS011;10612;50.692;7.188;2024-01-27T13:50:01;0.10;;;0.10;;
20904;SDS011;10612;50.692;7.188;2024-01-27T14:00:03;0.10;;;0.10;;
20904;SDS011;10612;50.692;7.188;2024-01-27T14:10:06;0.10;;;0.10;;
20904;SDS011;10612;50.692;7.188;2024-01-27T14:20:08;0.10;;;0.10;;
20904;SDS011;10612;50.692;7.188;2024-01-27T14:30:11;0.10;;;0.10;;
20904;SDS011;10612;50.692;7.188;2024-01-27T14:40:12;0.10;;;0.10;;
20904;SDS011;10612;50.692;7.188;2024-01-27T14:50:17;0.10;;;0.10;;
20904;SDS011;10612;50.692;7.188;2024-01-27T15:00:19;0.10;;;0.10;;
20904;SDS011;10612;50.692;7.188;2024-01-27T15:10:20;0.10;;;0.10;;
20904;SDS011;10612;50.692;7.188;2024-01-27T15:20:25;0.10;;;0.10;;
20904;SDS011;10612;50.692;7.188;2024-01-27T15:30:26;0.10;;;0.10;;
20904;SDS011;10612;50.692;7.188;2024-01-27T15:40:28;0.10;;;0.10;;
20904;SDS011;10612;50.692;7.188;2024-01-27T15:50:29;0.10;;;0.10;;
20904;SDS011;10612;50.692;7.188;2024-01-27T16:00:33;0.10;;;0.10;;
20904;SDS011;10612;50.692;7.188;2024-01-27T16:10:34;0.10;;;0.10;;
20904;SDS011;10612;50.692;7.188;2024-01-27T16:20:36;0.10;;;0.10;;
20904;SDS011;10612;50.692;7.188;2024-01-27T16:30:37;0.10;;;0.10;;
20904;SDS011;10612;50.692;7.188;2024-01-27T16:40:39;0.10;;;0.10;;
20904;SDS011;10612;50.692;7.188;2024-01-27T16:50:41;0.10;;;0.10;;
20904;SDS011;10612;50.692;7.188;2024-01-27T17:00:45;0.10;;;0.10;;
20904;SDS011;10612;50.692;7.188;2024-01-27T17:10:47;0.10;;;0.10;;
20904;SDS011;10612;50.692;7.188;2024-01-27T17:20:49;0.10;;;0.10;;
20904;SDS011;10612;50.692;7.188;2024-01-27T17:30:50;0.10;;;0.10;;
20904;SDS011;10612;50.692;7.188;2024-01-27T17:40:51;0.20;;;0.20;;
20904;SDS011;10612;50.692;7.188;2024-01-27T17:50:53;0.20;;;0.20;;
20904;SDS011;10612;50.692;7.188;2024-01-27T18:00:55;0.20;;;0.20;;
20904;SDS011;10612;50.692;7.188;2024-01-27T18:10:56;0.20;;;0.20;;
20904;SDS011;10612;50.692;7.188;2024-01-27T18:20:57;0.20;;;0.20;;
20904;SDS011;10612;50.692;7.188;2024-01-27T18:30:59;0.20;;;0.20;;
20904;SDS011;10612;50.692;7.188;2024-01-27T18:41:00;0.20;;;0.20;;
20904;SDS011;10612;50.692;7.188;2024-01-27T18:51:03;0.20;;;0.20;;
20904;SDS011;10612;50.692;7.188;2024-01-27T19:01:08;0.20;;;0.20;;
20904;SDS011;10612;50.692;7.188;2024-01-27T19:11:13;0.30;;;0.30;;
20904;SDS011;10612;50.692;7.188;2024-01-27T19:21:14;0.20;;;0.20;;
20904;SDS011;10612;50.692;7.188;2024-01-27T19:31:16;0.20;;;0.20;;
20904;SDS011;10612;50.692;7.188;2024-01-27T19:41:17;0.30;;;0.30;;
20904;SDS011;10612;50.692;7.188;2024-01-27T20:01:21;0.20;;;0.20;;
20904;SDS011;10612;50.692;7.188;2024-01-27T20:11:23;0.30;;;0.30;;
20904;SDS011;10612;50.692;7.188;2024-01-27T20:21:25;0.20;;;0.20;;
20904;SDS011;10612;50.692;7.188;2024-01-27T20:31:27;0.20;;;0.20;;
20904;SDS011;10612;50.692;7.188;2024-01-27T20:41:29;0.30;;;0.30;;
20904;SDS011;10612;50.692;7.188;2024-01-27T20:51:31;0.30;;;0.30;;
20904;SDS011;10612;50.692;7.188;2024-01-27T21:01:33;0.30;;;0.30;;
20904;SDS011;10612;50.692;7.188;2024-01-27T21:11:39;0.30;;;0.30;;
20904;SDS011;10612;50.692;7.188;2024-01-27T21:21:41;0.30;;;0.30;;
20904;SDS011;10612;50.692;7.188;2024-01-27T21:31:43;0.30;;;0.30;;
20904;SDS011;10612;50.692;7.188;2024-01-27T21:41:44;0.30;;;0.30;;
20904;SDS011;10612;50.692;7.188;2024-01-27T21:51:47;0.27;;;0.27;;
20904;SDS011;10612;50.692;7.188;2024-01-27T22:01:49;0.30;;;0.30;;
20904;SDS011;10612;50.692;7.188;2024-01-27T22:11:50;0.30;;;0.30;;
20904;SDS011;10612;50.692;7.188;2024-01-27T22:21:52;0.30;;;0.30;;
20904;SDS011;10612;50.692;7.188;2024-01-27T22:31:54;0.30;;;0.30;;
20904;SDS011;10612;50.692;7.188;2024-01-27T22:41:56;0.30;;;0.30;;
20904;SDS011;10612;50.692;7.188;2024-01-27T22:51:58;0.30;;;0.30;;
20904;SDS011;10612;50.692;7.188;2024-01-27T23:02:02;0.30;;;0.30;;
20904;SDS011;10612;50.692;7.188;2024-01-27T23:12:04;0.30;;;0.30;;
20904;SDS011;10612;50.692;7.188;2024-01-27T23:22:06;0.30;;;0.30;;
20904;SDS011;10612;50.692;7.188;2024-01-27T23:32:07;0.30;;;0.30;;
20904;SDS011;10612;50.692;7.188;2024-01-27T23:42:09;0.20;;;0.20;;
20904;SDS011;10612;50.692;7.188;2024-01-27T23:52:11;0.30;;;0.30;;
